sensor_id;sensor_type;location;lat;lon;timestamp;P1;durP1;ratioP1;P2;durP2;ratioP2
77507;SDS011;66618;42.666;23.360;2023-05-24T00:02:06;13.88;;;7.00;;
77507;SDS011;66618;42.666;23.360;2023-05-24T00:04:32;12.77;;;6.85;;
77507;SDS011;66618;42.666;23.360;2023-05-24T00:06:58;13.82;;;6.78;;
77507;SDS011;66618;42.666;23.360;2023-05-24T00:09:27;11.38;;;6.88;;
77507;SDS011;66618;42.666;23.360;2023-05-24T00:11:53;12.98;;;7.00;;
77507;SDS011;66618;42.666;23.360;2023-05-24T00:14:19;14.55;;;6.57;;
77507;SDS011;66618;42.666;23.360;2023-05-24T00:16:44;11.98;;;6.82;;
77507;SDS011;66618;42.666;23.360;2023-05-24T00:19:10;13.50;;;6.82;;
77507;SDS011;66618;42.666;23.360;2023-05-24T00:21:35;12.10;;;7.20;;
77507;SDS011;66618;42.666;23.360;2023-05-24T00:24:01;10.98;;;6.95;;
77507;SDS011;66618;42.666;23.360;2023-05-24T00:26:26;10.00;;;6.90;;
77507;SDS011;66618;42.666;23.360;2023-05-24T00:28:52;13.45;;;7.22;;
77507;SDS011;66618;42.666;23.360;2023-05-24T00:31:17;11.75;;;7.07;;
77507;SDS011;66618;42.666;23.360;2023-05-24T00:33:42;13.80;;;6.93;;
77507;SDS011;66618;42.666;23.360;2023-05-24T00:36:08;16.88;;;7.68;;
77507;SDS011;66618;42.666;23.360;2023-05-24T00:38:33;13.05;;;7.88;;
77507;SDS011;66618;42.666;23.360;2023-05-24T00:40:59;14.07;;;7.07;;
77507;SDS011;66618;42.666;23.360;2023-05-24T00:43:25;14.70;;;7.93;;
77507;SDS011;66618;42.666;23.360;2023-05-24T00:46:13;11.95;;;7.50;;
77507;SDS011;66618;42.666;23.360;2023-05-24T00:48:44;12.00;;;7.00;;
77507;SDS011;66618;42.666;23.360;2023-05-24T00:51:10;12.63;;;7.28;;
77507;SDS011;66618;42.666;23.360;2023-05-24T00:53:36;10.25;;;7.07;;
77507;SDS011;66618;42.666;23.360;2023-05-24T00:56:02;12.13;;;6.80;;
77507;SDS011;66618;42.666;23.360;2023-05-24T00:58:28;9.70;;;7.00;;
77507;SDS011;66618;42.666;23.360;2023-05-24T01:00:58;11.70;;;6.97;;
77507;SDS011;66618;42.666;23.360;2023-05-24T01:03:25;10.80;;;6.95;;
77507;SDS011;66618;42.666;23.360;2023-05-24T01:05:57;12.35;;;7.30;;
77507;SDS011;66618;42.666;23.360;2023-05-24T01:11:12;13.25;;;8.02;;
77507;SDS011;66618;42.666;23.360;2023-05-24T01:16:51;15.23;;;7.22;;
77507;SDS011;66618;42.666;23.360;2023-05-24T01:27:30;14.18;;;8.02;;
77507;SDS011;66618;42.666;23.360;2023-05-24T01:29:58;9.90;;;7.35;;
77507;SDS011;66618;42.666;23.360;2023-05-24T01:32:24;11.50;;;6.80;;
77507;SDS011;66618;42.666;23.360;2023-05-24T01:34:49;11.80;;;7.38;;
77507;SDS011;66618;42.666;23.360;2023-05-24T01:37:15;10.50;;;7.05;;
77507;SDS011;66618;42.666;23.360;2023-05-24T01:39:40;13.05;;;7.13;;
77507;SDS011;66618;42.666;23.360;2023-05-24T01:44:57;11.32;;;7.35;;
77507;SDS011;66618;42.666;23.360;2023-05-24T01:50:37;14.48;;;7.18;;
77507;SDS011;66618;42.666;23.360;2023-05-24T01:53:06;10.90;;;6.88;;
77507;SDS011;66618;42.666;23.360;2023-05-24T01:55:33;13.50;;;7.40;;
77507;SDS011;66618;42.666;23.360;2023-05-24T01:58:00;14.70;;;7.65;;
77507;SDS011;66618;42.666;23.360;2023-05-24T02:00:27;19.38;;;7.97;;
77507;SDS011;66618;42.666;23.360;2023-05-24T02:02:53;13.02;;;7.50;;
77507;SDS011;66618;42.666;23.360;2023-05-24T02:05:20;12.93;;;6.85;;
77507;SDS011;66618;42.666;23.360;2023-05-24T02:07:45;11.07;;;7.78;;
77507;SDS011;66618;42.666;23.360;2023-05-24T02:10:11;13.48;;;8.00;;
77507;SDS011;66618;42.666;23.360;2023-05-24T02:12:38;13.32;;;7.70;;
77507;SDS011;66618;42.666;23.360;2023-05-24T02:15:03;11.50;;;7.20;;
77507;SDS011;66618;42.666;23.360;2023-05-24T02:17:29;10.23;;;6.65;;
77507;SDS011;66618;42.666;23.360;2023-05-24T02:19:57;12.95;;;7.30;;
77507;SDS011;66618;42.666;23.360;2023-05-24T02:22:23;13.18;;;7.65;;
77507;SDS011;66618;42.666;23.360;2023-05-24T02:24:48;12.75;;;8.10;;
77507;SDS011;66618;42.666;23.360;2023-05-24T02:27:13;13.25;;;8.20;;
77507;SDS011;66618;42.666;23.360;2023-05-24T02:29:39;14.02;;;7.78;;
77507;SDS011;66618;42.666;23.360;2023-05-24T02:32:06;12.15;;;8.25;;
77507;SDS011;66618;42.666;23.360;2023-05-24T02:34:31;15.45;;;7.93;;
77507;SDS011;66618;42.666;23.360;2023-05-24T02:36:57;13.73;;;8.18;;
77507;SDS011;66618;42.666;23.360;2023-05-24T02:39:22;11.88;;;8.20;;
77507;SDS011;66618;42.666;23.360;2023-05-24T02:41:48;13.82;;;8.70;;
77507;SDS011;66618;42.666;23.360;2023-05-24T02:44:13;17.45;;;8.68;;
77507;SDS011;66618;42.666;23.360;2023-05-24T02:46:38;10.02;;;8.18;;
77507;SDS011;66618;42.666;23.360;2023-05-24T02:49:04;15.55;;;7.97;;
77507;SDS011;66618;42.666;23.360;2023-05-24T02:51:29;12.98;;;8.43;;
77507;SDS011;66618;42.666;23.360;2023-05-24T02:53:57;17.30;;;8.80;;
77507;SDS011;66618;42.666;23.360;2023-05-24T02:56:22;14.73;;;9.75;;
77507;SDS011;66618;42.666;23.360;2023-05-24T02:58:48;15.82;;;8.18;;
77507;SDS011;66618;42.666;23.360;2023-05-24T03:01:13;12.68;;;8.00;;
77507;SDS011;66618;42.666;23.360;2023-05-24T03:03:39;13.40;;;8.02;;
77507;SDS011;66618;42.666;23.360;2023-05-24T03:06:05;15.40;;;8.57;;
77507;SDS011;66618;42.666;23.360;2023-05-24T03:08:31;12.73;;;8.05;;
77507;SDS011;66618;42.666;23.360;2023-05-24T03:10:57;13.27;;;8.80;;
77507;SDS011;66618;42.666;23.360;2023-05-24T03:13:22;14.02;;;8.18;;
77507;SDS011;66618;42.666;23.360;2023-05-24T03:15:48;15.25;;;8.70;;
77507;SDS011;66618;42.666;23.360;2023-05-24T03:18:13;15.68;;;9.13;;
77507;SDS011;66618;42.666;23.360;2023-05-24T03:20:38;12.73;;;8.25;;
77507;SDS011;66618;42.666;23.360;2023-05-24T03:23:04;15.80;;;8.25;;
77507;SDS011;66618;42.666;23.360;2023-05-24T03:25:29;13.95;;;8.75;;
77507;SDS011;66618;42.666;23.360;2023-05-24T03:27:55;13.98;;;8.50;;
77507;SDS011;66618;42.666;23.360;2023-05-24T03:30:20;13.65;;;8.98;;
77507;SDS011;66618;42.666;23.360;2023-05-24T03:32:45;21.20;;;9.63;;
77507;SDS011;66618;42.666;23.360;2023-05-24T03:35:11;12.95;;;8.48;;
77507;SDS011;66618;42.666;23.360;2023-05-24T03:37:36;15.20;;;9.27;;
77507;SDS011;66618;42.666;23.360;2023-05-24T03:40:02;14.68;;;9.30;;
77507;SDS011;66618;42.666;23.360;2023-05-24T03:42:28;21.10;;;8.82;;
77507;SDS011;66618;42.666;23.360;2023-05-24T03:44:54;15.73;;;7.63;;
77507;SDS011;66618;42.666;23.360;2023-05-24T03:47:19;12.93;;;8.70;;
77507;SDS011;66618;42.666;23.360;2023-05-24T03:49:45;15.30;;;8.93;;
77507;SDS011;66618;42.666;23.360;2023-05-24T03:52:11;16.88;;;8.20;;
77507;SDS011;66618;42.666;23.360;2023-05-24T03:54:36;14.43;;;8.98;;
77507;SDS011;66618;42.666;23.360;2023-05-24T03:57:01;16.90;;;8.82;;
77507;SDS011;66618;42.666;23.360;2023-05-24T03:59:27;16.70;;;8.32;;
77507;SDS011;66618;42.666;23.360;2023-05-24T04:01:54;13.25;;;8.40;;
77507;SDS011;66618;42.666;23.360;2023-05-24T04:04:20;16.23;;;8.13;;
77507;SDS011;66618;42.666;23.360;2023-05-24T04:06:45;14.43;;;8.35;;
77507;SDS011;66618;42.666;23.360;2023-05-24T04:09:11;16.70;;;9.23;;
77507;SDS011;66618;42.666;23.360;2023-05-24T04:11:37;12.73;;;7.55;;
77507;SDS011;66618;42.666;23.360;2023-05-24T04:14:02;13.63;;;7.78;;
77507;SDS011;66618;42.666;23.360;2023-05-24T04:16:28;12.73;;;7.47;;
77507;SDS011;66618;42.666;23.360;2023-05-24T04:18:53;12.70;;;8.07;;
77507;SDS011;66618;42.666;23.360;2023-05-24T04:21:19;15.90;;;7.95;;
77507;SDS011;66618;42.666;23.360;2023-05-24T04:23:44;10.18;;;7.28;;
77507;SDS011;66618;42.666;23.360;2023-05-24T04:26:10;9.25;;;6.65;;
77507;SDS011;66618;42.666;23.360;2023-05-24T04:28:36;14.85;;;7.55;;
77507;SDS011;66618;42.666;23.360;2023-05-24T04:31:04;8.65;;;6.60;;
77507;SDS011;66618;42.666;23.360;2023-05-24T04:33:30;12.20;;;6.82;;
77507;SDS011;66618;42.666;23.360;2023-05-24T04:35:59;10.95;;;6.13;;
77507;SDS011;66618;42.666;23.360;2023-05-24T04:38:25;9.98;;;6.60;;
77507;SDS011;66618;42.666;23.360;2023-05-24T04:40:54;7.80;;;5.90;;
77507;SDS011;66618;42.666;23.360;2023-05-24T04:43:20;8.63;;;6.10;;
77507;SDS011;66618;42.666;23.360;2023-05-24T04:45:47;8.43;;;6.03;;
77507;SDS011;66618;42.666;23.360;2023-05-24T04:48:12;8.70;;;6.15;;
77507;SDS011;66618;42.666;23.360;2023-05-24T04:50:38;13.45;;;6.55;;
77507;SDS011;66618;42.666;23.360;2023-05-24T04:53:04;7.07;;;5.82;;
77507;SDS011;66618;42.666;23.360;2023-05-24T04:55:30;8.38;;;6.32;;
77507;SDS011;66618;42.666;23.360;2023-05-24T04:57:56;7.65;;;5.32;;
77507;SDS011;66618;42.666;23.360;2023-05-24T05:00:22;7.65;;;5.55;;
77507;SDS011;66618;42.666;23.360;2023-05-24T05:02:47;8.95;;;5.45;;
77507;SDS011;66618;42.666;23.360;2023-05-24T05:05:12;8.68;;;5.78;;
77507;SDS011;66618;42.666;23.360;2023-05-24T05:07:38;7.75;;;5.82;;
77507;SDS011;66618;42.666;23.360;2023-05-24T05:10:04;9.10;;;5.22;;
77507;SDS011;66618;42.666;23.360;2023-05-24T05:12:30;7.05;;;5.55;;
77507;SDS011;66618;42.666;23.360;2023-05-24T05:14:56;9.63;;;5.90;;
77507;SDS011;66618;42.666;23.360;2023-05-24T05:17:21;9.57;;;6.10;;
77507;SDS011;66618;42.666;23.360;2023-05-24T05:19:47;9.02;;;5.35;;
77507;SDS011;66618;42.666;23.360;2023-05-24T05:22:12;9.25;;;6.50;;
77507;SDS011;66618;42.666;23.360;2023-05-24T05:24:37;9.80;;;5.82;;
77507;SDS011;66618;42.666;23.360;2023-05-24T05:27:03;8.32;;;5.70;;
77507;SDS011;66618;42.666;23.360;2023-05-24T05:29:28;9.30;;;5.70;;
77507;SDS011;66618;42.666;23.360;2023-05-24T05:31:54;8.32;;;5.20;;
77507;SDS011;66618;42.666;23.360;2023-05-24T05:34:19;9.52;;;5.72;;
77507;SDS011;66618;42.666;23.360;2023-05-24T05:36:45;7.32;;;5.30;;
77507;SDS011;66618;42.666;23.360;2023-05-24T05:39:10;9.27;;;5.68;;
77507;SDS011;66618;42.666;23.360;2023-05-24T05:41:37;8.45;;;5.82;;
77507;SDS011;66618;42.666;23.360;2023-05-24T05:44:03;6.72;;;5.22;;
77507;SDS011;66618;42.666;23.360;2023-05-24T05:46:28;7.13;;;5.72;;
77507;SDS011;66618;42.666;23.360;2023-05-24T05:48:54;7.78;;;4.95;;
77507;SDS011;66618;42.666;23.360;2023-05-24T05:51:19;7.28;;;5.70;;
77507;SDS011;66618;42.666;23.360;2023-05-24T05:53:44;8.77;;;5.88;;
77507;SDS011;66618;42.666;23.360;2023-05-24T05:56:10;8.20;;;5.78;;
77507;SDS011;66618;42.666;23.360;2023-05-24T05:58:35;7.43;;;6.05;;
77507;SDS011;66618;42.666;23.360;2023-05-24T06:01:02;8.30;;;5.85;;
77507;SDS011;66618;42.666;23.360;2023-05-24T06:03:28;9.40;;;5.88;;
77507;SDS011;66618;42.666;23.360;2023-05-24T06:05:53;8.00;;;5.25;;
77507;SDS011;66618;42.666;23.360;2023-05-24T06:08:19;7.78;;;5.47;;
77507;SDS011;66618;42.666;23.360;2023-05-24T06:10:44;7.30;;;5.50;;
77507;SDS011;66618;42.666;23.360;2023-05-24T06:13:10;7.78;;;5.47;;
77507;SDS011;66618;42.666;23.360;2023-05-24T06:15:35;6.63;;;5.38;;
77507;SDS011;66618;42.666;23.360;2023-05-24T06:18:02;7.95;;;5.45;;
77507;SDS011;66618;42.666;23.360;2023-05-24T06:20:27;8.57;;;5.50;;
77507;SDS011;66618;42.666;23.360;2023-05-24T06:22:53;6.35;;;5.70;;
77507;SDS011;66618;42.666;23.360;2023-05-24T06:25:19;7.32;;;5.70;;
77507;SDS011;66618;42.666;23.360;2023-05-24T06:27:46;6.43;;;5.60;;
77507;SDS011;66618;42.666;23.360;2023-05-24T06:30:12;8.55;;;5.43;;
77507;SDS011;66618;42.666;23.360;2023-05-24T06:32:37;9.65;;;5.78;;
77507;SDS011;66618;42.666;23.360;2023-05-24T06:35:03;7.35;;;6.18;;
77507;SDS011;66618;42.666;23.360;2023-05-24T06:37:29;7.85;;;5.93;;
77507;SDS011;66618;42.666;23.360;2023-05-24T06:39:55;7.43;;;5.60;;
77507;SDS011;66618;42.666;23.360;2023-05-24T06:42:21;7.22;;;5.55;;
77507;SDS011;66618;42.666;23.360;2023-05-24T06:44:46;8.23;;;6.50;;
77507;SDS011;66618;42.666;23.360;2023-05-24T06:47:13;8.18;;;6.47;;
77507;SDS011;66618;42.666;23.360;2023-05-24T06:49:38;7.85;;;5.60;;
77507;SDS011;66618;42.666;23.360;2023-05-24T06:52:04;10.88;;;6.00;;
77507;SDS011;66618;42.666;23.360;2023-05-24T06:54:31;7.82;;;5.47;;
77507;SDS011;66618;42.666;23.360;2023-05-24T06:56:57;8.20;;;6.65;;
77507;SDS011;66618;42.666;23.360;2023-05-24T06:59:22;8.95;;;5.97;;
77507;SDS011;66618;42.666;23.360;2023-05-24T07:01:48;9.98;;;5.80;;
77507;SDS011;66618;42.666;23.360;2023-05-24T07:04:17;8.68;;;5.57;;
77507;SDS011;66618;42.666;23.360;2023-05-24T07:06:42;8.45;;;5.72;;
77507;SDS011;66618;42.666;23.360;2023-05-24T07:09:09;8.05;;;5.78;;
77507;SDS011;66618;42.666;23.360;2023-05-24T07:11:35;8.35;;;6.13;;
77507;SDS011;66618;42.666;23.360;2023-05-24T07:14:00;9.25;;;6.13;;
77507;SDS011;66618;42.666;23.360;2023-05-24T07:16:26;10.75;;;6.25;;
77507;SDS011;66618;42.666;23.360;2023-05-24T07:18:51;9.65;;;6.40;;
77507;SDS011;66618;42.666;23.360;2023-05-24T07:21:16;10.85;;;6.18;;
77507;SDS011;66618;42.666;23.360;2023-05-24T07:23:42;11.32;;;6.22;;
77507;SDS011;66618;42.666;23.360;2023-05-24T07:26:07;11.95;;;6.97;;
77507;SDS011;66618;42.666;23.360;2023-05-24T07:28:36;10.02;;;6.45;;
77507;SDS011;66618;42.666;23.360;2023-05-24T07:31:04;11.20;;;6.97;;
77507;SDS011;66618;42.666;23.360;2023-05-24T07:33:29;11.13;;;6.82;;
77507;SDS011;66618;42.666;23.360;2023-05-24T07:35:55;9.32;;;6.47;;
77507;SDS011;66618;42.666;23.360;2023-05-24T07:38:20;11.55;;;7.15;;
77507;SDS011;66618;42.666;23.360;2023-05-24T07:40:46;12.00;;;6.93;;
77507;SDS011;66618;42.666;23.360;2023-05-24T07:43:11;12.82;;;6.63;;
77507;SDS011;66618;42.666;23.360;2023-05-24T07:45:36;12.18;;;7.10;;
77507;SDS011;66618;42.666;23.360;2023-05-24T07:48:02;10.35;;;6.65;;
77507;SDS011;66618;42.666;23.360;2023-05-24T07:50:27;13.93;;;6.70;;
77507;SDS011;66618;42.666;23.360;2023-05-24T07:52:53;13.52;;;6.40;;
77507;SDS011;66618;42.666;23.360;2023-05-24T07:55:20;9.65;;;6.95;;
77507;SDS011;66618;42.666;23.360;2023-05-24T07:57:46;13.98;;;7.45;;
77507;SDS011;66618;42.666;23.360;2023-05-24T08:00:11;11.70;;;6.30;;
77507;SDS011;66618;42.666;23.360;2023-05-24T08:02:42;10.30;;;6.30;;
77507;SDS011;66618;42.666;23.360;2023-05-24T08:05:11;11.98;;;5.80;;
77507;SDS011;66618;42.666;23.360;2023-05-24T08:07:36;9.57;;;5.45;;
77507;SDS011;66618;42.666;23.360;2023-05-24T08:10:02;8.80;;;5.38;;
77507;SDS011;66618;42.666;23.360;2023-05-24T08:12:27;6.32;;;4.70;;
77507;SDS011;66618;42.666;23.360;2023-05-24T08:14:54;8.15;;;4.95;;
77507;SDS011;66618;42.666;23.360;2023-05-24T08:17:20;7.45;;;5.60;;
77507;SDS011;66618;42.666;23.360;2023-05-24T08:19:46;9.25;;;4.90;;
77507;SDS011;66618;42.666;23.360;2023-05-24T08:22:11;6.18;;;4.70;;
77507;SDS011;66618;42.666;23.360;2023-05-24T08:24:36;6.97;;;4.18;;
77507;SDS011;66618;42.666;23.360;2023-05-24T08:27:02;8.60;;;4.78;;
77507;SDS011;66618;42.666;23.360;2023-05-24T08:29:28;4.82;;;4.13;;
77507;SDS011;66618;42.666;23.360;2023-05-24T08:31:54;6.80;;;4.72;;
77507;SDS011;66618;42.666;23.360;2023-05-24T08:34:19;9.98;;;5.13;;
77507;SDS011;66618;42.666;23.360;2023-05-24T08:36:45;6.57;;;4.78;;
77507;SDS011;66618;42.666;23.360;2023-05-24T08:39:11;5.40;;;4.10;;
77507;SDS011;66618;42.666;23.360;2023-05-24T08:41:36;9.63;;;3.70;;
77507;SDS011;66618;42.666;23.360;2023-05-24T08:44:05;6.90;;;3.63;;
77507;SDS011;66618;42.666;23.360;2023-05-24T08:46:35;6.63;;;3.50;;
77507;SDS011;66618;42.666;23.360;2023-05-24T08:49:01;5.35;;;3.08;;
77507;SDS011;66618;42.666;23.360;2023-05-24T08:51:28;6.15;;;3.38;;
77507;SDS011;66618;42.666;23.360;2023-05-24T08:53:54;6.38;;;3.20;;
77507;SDS011;66618;42.666;23.360;2023-05-24T08:56:21;4.13;;;3.50;;
77507;SDS011;66618;42.666;23.360;2023-05-24T08:58:49;4.68;;;3.40;;
77507;SDS011;66618;42.666;23.360;2023-05-24T09:01:15;4.40;;;3.22;;
77507;SDS011;66618;42.666;23.360;2023-05-24T09:03:41;3.35;;;3.05;;
77507;SDS011;66618;42.666;23.360;2023-05-24T09:06:10;8.48;;;3.75;;
77507;SDS011;66618;42.666;23.360;2023-05-24T09:08:37;4.38;;;3.38;;
77507;SDS011;66618;42.666;23.360;2023-05-24T09:11:02;4.57;;;3.38;;
77507;SDS011;66618;42.666;23.360;2023-05-24T09:13:28;5.03;;;3.22;;
77507;SDS011;66618;42.666;23.360;2023-05-24T09:15:55;3.72;;;2.85;;
77507;SDS011;66618;42.666;23.360;2023-05-24T09:18:23;2.80;;;2.50;;
77507;SDS011;66618;42.666;23.360;2023-05-24T09:20:48;4.53;;;3.30;;
77507;SDS011;66618;42.666;23.360;2023-05-24T09:23:14;5.00;;;3.05;;
77507;SDS011;66618;42.666;23.360;2023-05-24T09:25:43;4.15;;;2.80;;
77507;SDS011;66618;42.666;23.360;2023-05-24T09:28:11;5.60;;;2.83;;
77507;SDS011;66618;42.666;23.360;2023-05-24T09:30:38;4.05;;;2.50;;
77507;SDS011;66618;42.666;23.360;2023-05-24T09:33:07;3.00;;;2.47;;
77507;SDS011;66618;42.666;23.360;2023-05-24T09:35:32;4.03;;;2.70;;
77507;SDS011;66618;42.666;23.360;2023-05-24T09:37:58;4.65;;;2.53;;
77507;SDS011;66618;42.666;23.360;2023-05-24T09:40:24;3.63;;;2.70;;
77507;SDS011;66618;42.666;23.360;2023-05-24T09:43:09;3.58;;;2.97;;
77507;SDS011;66618;42.666;23.360;2023-05-24T09:45:41;3.78;;;2.90;;
77507;SDS011;66618;42.666;23.360;2023-05-24T09:48:10;4.20;;;2.67;;
77507;SDS011;66618;42.666;23.360;2023-05-24T09:50:37;4.55;;;3.10;;
77507;SDS011;66618;42.666;23.360;2023-05-24T09:53:02;3.85;;;2.45;;
77507;SDS011;66618;42.666;23.360;2023-05-24T09:55:27;2.92;;;2.72;;
77507;SDS011;66618;42.666;23.360;2023-05-24T09:58:03;6.28;;;3.10;;
77507;SDS011;66618;42.666;23.360;2023-05-24T10:00:32;3.53;;;2.65;;
77507;SDS011;66618;42.666;23.360;2023-05-24T10:03:04;2.92;;;2.72;;
77507;SDS011;66618;42.666;23.360;2023-05-24T10:05:33;3.00;;;2.70;;
77507;SDS011;66618;42.666;23.360;2023-05-24T10:08:00;4.45;;;3.00;;
77507;SDS011;66618;42.666;23.360;2023-05-24T10:10:31;3.33;;;2.92;;
77507;SDS011;66618;42.666;23.360;2023-05-24T10:12:57;2.60;;;2.40;;
77507;SDS011;66618;42.666;23.360;2023-05-24T10:15:23;3.35;;;2.70;;
77507;SDS011;66618;42.666;23.360;2023-05-24T10:17:50;2.85;;;2.50;;
77507;SDS011;66618;42.666;23.360;2023-05-24T10:20:16;2.85;;;2.35;;
77507;SDS011;66618;42.666;23.360;2023-05-24T10:22:43;5.03;;;2.80;;
77507;SDS011;66618;42.666;23.360;2023-05-24T10:25:11;4.20;;;2.30;;
77507;SDS011;66618;42.666;23.360;2023-05-24T10:27:40;4.05;;;2.53;;
77507;SDS011;66618;42.666;23.360;2023-05-24T10:30:10;6.38;;;2.80;;
77507;SDS011;66618;42.666;23.360;2023-05-24T10:32:39;3.47;;;2.90;;
77507;SDS011;66618;42.666;23.360;2023-05-24T10:35:07;4.65;;;2.65;;
77507;SDS011;66618;42.666;23.360;2023-05-24T10:37:35;3.70;;;2.47;;
77507;SDS011;66618;42.666;23.360;2023-05-24T10:40:01;5.03;;;2.70;;
77507;SDS011;66618;42.666;23.360;2023-05-24T10:42:26;7.38;;;3.22;;
77507;SDS011;66618;42.666;23.360;2023-05-24T10:44:55;4.35;;;2.65;;
77507;SDS011;66618;42.666;23.360;2023-05-24T10:47:20;2.75;;;2.45;;
77507;SDS011;66618;42.666;23.360;2023-05-24T10:49:55;5.07;;;2.90;;
77507;SDS011;66618;42.666;23.360;2023-05-24T10:52:35;3.15;;;2.50;;
77507;SDS011;66618;42.666;23.360;2023-05-24T10:57:32;3.22;;;2.50;;
77507;SDS011;66618;42.666;23.360;2023-05-24T11:00:15;3.67;;;2.88;;
77507;SDS011;66618;42.666;23.360;2023-05-24T11:02:59;3.08;;;2.60;;
77507;SDS011;66618;42.666;23.360;2023-05-24T11:05:33;3.08;;;2.78;;
77507;SDS011;66618;42.666;23.360;2023-05-24T11:13:31;2.90;;;2.60;;
77507;SDS011;66618;42.666;23.360;2023-05-24T11:15:57;4.57;;;2.78;;
77507;SDS011;66618;42.666;23.360;2023-05-24T11:18:24;6.15;;;3.00;;
77507;SDS011;66618;42.666;23.360;2023-05-24T11:20:50;3.53;;;2.63;;
77507;SDS011;66618;42.666;23.360;2023-05-24T11:23:15;3.75;;;2.70;;
77507;SDS011;66618;42.666;23.360;2023-05-24T11:25:41;2.90;;;2.60;;
77507;SDS011;66618;42.666;23.360;2023-05-24T11:28:10;5.55;;;2.97;;
77507;SDS011;66618;42.666;23.360;2023-05-24T11:30:43;3.13;;;2.63;;
77507;SDS011;66618;42.666;23.360;2023-05-24T11:33:17;3.90;;;3.00;;
77507;SDS011;66618;42.666;23.360;2023-05-24T11:35:44;3.75;;;2.70;;
77507;SDS011;66618;42.666;23.360;2023-05-24T11:38:11;4.43;;;2.78;;
77507;SDS011;66618;42.666;23.360;2023-05-24T11:40:40;4.03;;;3.35;;
77507;SDS011;66618;42.666;23.360;2023-05-24T11:43:10;2.88;;;2.50;;
77507;SDS011;66618;42.666;23.360;2023-05-24T11:45:54;2.85;;;2.53;;
77507;SDS011;66618;42.666;23.360;2023-05-24T11:48:19;4.72;;;2.80;;
77507;SDS011;66618;42.666;23.360;2023-05-24T11:50:46;3.72;;;2.67;;
77507;SDS011;66618;42.666;23.360;2023-05-24T11:53:16;3.22;;;2.35;;
77507;SDS011;66618;42.666;23.360;2023-05-24T11:55:43;6.20;;;3.00;;
77507;SDS011;66618;42.666;23.360;2023-05-24T11:58:21;3.75;;;2.78;;
77507;SDS011;66618;42.666;23.360;2023-05-24T12:00:54;2.78;;;2.58;;
77507;SDS011;66618;42.666;23.360;2023-05-24T12:03:19;3.88;;;2.70;;
77507;SDS011;66618;42.666;23.360;2023-05-24T12:05:45;3.55;;;2.50;;
77507;SDS011;66618;42.666;23.360;2023-05-24T12:08:11;3.92;;;2.35;;
77507;SDS011;66618;42.666;23.360;2023-05-24T12:10:40;2.92;;;2.63;;
77507;SDS011;66618;42.666;23.360;2023-05-24T12:13:16;3.00;;;2.70;;
77507;SDS011;66618;42.666;23.360;2023-05-24T12:15:43;5.45;;;2.60;;
77507;SDS011;66618;42.666;23.360;2023-05-24T12:18:20;4.63;;;2.70;;
77507;SDS011;66618;42.666;23.360;2023-05-24T12:20:47;6.65;;;2.75;;
77507;SDS011;66618;42.666;23.360;2023-05-24T12:23:13;4.45;;;2.60;;
77507;SDS011;66618;42.666;23.360;2023-05-24T12:25:39;3.13;;;2.65;;
77507;SDS011;66618;42.666;23.360;2023-05-24T12:28:04;3.50;;;2.72;;
77507;SDS011;66618;42.666;23.360;2023-05-24T12:30:30;4.30;;;2.53;;
77507;SDS011;66618;42.666;23.360;2023-05-24T12:32:55;5.10;;;2.58;;
77507;SDS011;66618;42.666;23.360;2023-05-24T12:35:21;4.15;;;2.90;;
77507;SDS011;66618;42.666;23.360;2023-05-24T12:37:47;5.70;;;2.80;;
77507;SDS011;66618;42.666;23.360;2023-05-24T12:40:16;3.40;;;2.60;;
77507;SDS011;66618;42.666;23.360;2023-05-24T12:42:44;5.55;;;2.75;;
77507;SDS011;66618;42.666;23.360;2023-05-24T12:45:13;5.15;;;2.85;;
77507;SDS011;66618;42.666;23.360;2023-05-24T12:47:38;3.00;;;2.70;;
77507;SDS011;66618;42.666;23.360;2023-05-24T12:50:04;3.97;;;2.90;;
77507;SDS011;66618;42.666;23.360;2023-05-24T12:52:30;3.38;;;2.70;;
77507;SDS011;66618;42.666;23.360;2023-05-24T12:54:55;4.13;;;2.92;;
77507;SDS011;66618;42.666;23.360;2023-05-24T12:57:21;4.50;;;2.80;;
77507;SDS011;66618;42.666;23.360;2023-05-24T12:59:47;3.28;;;2.38;;
77507;SDS011;66618;42.666;23.360;2023-05-24T13:02:12;4.15;;;2.83;;
77507;SDS011;66618;42.666;23.360;2023-05-24T13:04:37;3.88;;;2.78;;
77507;SDS011;66618;42.666;23.360;2023-05-24T13:07:03;5.05;;;2.72;;
77507;SDS011;66618;42.666;23.360;2023-05-24T13:09:28;3.03;;;2.63;;
77507;SDS011;66618;42.666;23.360;2023-05-24T13:11:54;3.67;;;2.50;;
77507;SDS011;66618;42.666;23.360;2023-05-24T13:14:19;4.22;;;2.80;;
77507;SDS011;66618;42.666;23.360;2023-05-24T13:16:45;2.92;;;2.63;;
77507;SDS011;66618;42.666;23.360;2023-05-24T13:19:11;2.92;;;2.65;;
77507;SDS011;66618;42.666;23.360;2023-05-24T13:21:37;4.40;;;2.70;;
77507;SDS011;66618;42.666;23.360;2023-05-24T13:24:02;4.82;;;2.70;;
77507;SDS011;66618;42.666;23.360;2023-05-24T13:26:30;4.53;;;2.67;;
77507;SDS011;66618;42.666;23.360;2023-05-24T13:28:59;5.75;;;3.50;;
77507;SDS011;66618;42.666;23.360;2023-05-24T13:31:25;3.58;;;2.72;;
77507;SDS011;66618;42.666;23.360;2023-05-24T13:33:50;4.30;;;2.67;;
77507;SDS011;66618;42.666;23.360;2023-05-24T13:36:16;4.18;;;2.78;;
77507;SDS011;66618;42.666;23.360;2023-05-24T13:38:41;4.03;;;2.45;;
77507;SDS011;66618;42.666;23.360;2023-05-24T13:41:07;4.80;;;2.53;;
77507;SDS011;66618;42.666;23.360;2023-05-24T13:43:32;4.95;;;2.80;;
77507;SDS011;66618;42.666;23.360;2023-05-24T13:45:58;4.47;;;2.95;;
77507;SDS011;66618;42.666;23.360;2023-05-24T13:48:23;4.85;;;2.95;;
77507;SDS011;66618;42.666;23.360;2023-05-24T13:50:49;3.65;;;2.42;;
77507;SDS011;66618;42.666;23.360;2023-05-24T13:53:14;3.58;;;3.28;;
77507;SDS011;66618;42.666;23.360;2023-05-24T13:55:39;3.90;;;3.03;;
77507;SDS011;66618;42.666;23.360;2023-05-24T13:58:05;3.47;;;3.17;;
77507;SDS011;66618;42.666;23.360;2023-05-24T14:00:30;4.07;;;3.10;;
77507;SDS011;66618;42.666;23.360;2023-05-24T14:02:57;4.15;;;3.15;;
77507;SDS011;66618;42.666;23.360;2023-05-24T14:05:22;3.97;;;3.03;;
77507;SDS011;66618;42.666;23.360;2023-05-24T14:07:48;4.00;;;3.03;;
77507;SDS011;66618;42.666;23.360;2023-05-24T14:10:14;6.18;;;3.25;;
77507;SDS011;66618;42.666;23.360;2023-05-24T14:12:40;4.35;;;3.05;;
77507;SDS011;66618;42.666;23.360;2023-05-24T14:15:06;4.57;;;2.92;;
77507;SDS011;66618;42.666;23.360;2023-05-24T14:17:32;4.63;;;3.00;;
77507;SDS011;66618;42.666;23.360;2023-05-24T14:19:57;4.72;;;3.90;;
77507;SDS011;66618;42.666;23.360;2023-05-24T14:22:23;4.72;;;3.00;;
77507;SDS011;66618;42.666;23.360;2023-05-24T14:24:50;4.63;;;3.10;;
77507;SDS011;66618;42.666;23.360;2023-05-24T14:27:15;5.18;;;2.92;;
77507;SDS011;66618;42.666;23.360;2023-05-24T14:29:41;6.55;;;3.30;;
77507;SDS011;66618;42.666;23.360;2023-05-24T14:32:06;4.28;;;3.25;;
77507;SDS011;66618;42.666;23.360;2023-05-24T14:34:33;3.72;;;3.05;;
77507;SDS011;66618;42.666;23.360;2023-05-24T14:36:59;5.13;;;3.20;;
77507;SDS011;66618;42.666;23.360;2023-05-24T14:39:24;3.60;;;3.05;;
77507;SDS011;66618;42.666;23.360;2023-05-24T14:41:49;4.88;;;2.92;;
77507;SDS011;66618;42.666;23.360;2023-05-24T14:44:15;4.13;;;2.88;;
77507;SDS011;66618;42.666;23.360;2023-05-24T14:46:40;4.10;;;2.95;;
77507;SDS011;66618;42.666;23.360;2023-05-24T14:49:05;4.32;;;3.10;;
77507;SDS011;66618;42.666;23.360;2023-05-24T14:51:32;3.53;;;3.22;;
77507;SDS011;66618;42.666;23.360;2023-05-24T14:53:57;5.22;;;3.08;;
77507;SDS011;66618;42.666;23.360;2023-05-24T14:56:23;6.18;;;3.20;;